メインページ
METAR-TAF:

METAR-TAF

空港 :

エルドラド国際空港

ボゴタ, コロンビア

緯度: 04-43N, 経度: 074-09W, 海抜: 2547m

現時点の気象観測

当レポートは26分前の21:00(UTC)に作成
北/北西の風 10kt
気温 18°C
湿度 56%
気圧 1021 hPa
視程10km以上
高度2300ftの雲は散在している, 塔状積雲.
近辺でにわか雨

METAR: SKBO 202100Z 33010KT 9999 VCSH SCT023TCU 18/09 A3016 RMK TCU VCSH SE

時間: 16:26 (21:26 UTC)

予報

当レポートは4時間26分前の17:00(UTC)に作成
予報は20日の 18時(UTC)から 21日の 18時(UTC)まで有効
西/北西の風 8kt
視程10km以上
高度2000ftの雲はほとんどない
高度20000ftの千切れ雲あり
20日の 21時(UTC)から 21日の 02時(UTC)まで一時的に
視程: 8000m
高度2300ftの千切れ雲あり
霧雨
21日の 09時(UTC)から 21日の 13時(UTC)まで一時的に
視程: 8000m
高度1500ftの雲は散在している

TAF: SKBO 201700Z 2018/2118 29008KT 9999 FEW020 BKN200 TEMPO 2021/2102 8000 DZ BKN023 TEMPO 2109/2113 8000 SCT015 TX21/2018Z TN08/2111Z

4,000以上の空港の気象観測と天気予報(METAR報とTAF報)

利用可能な観測所は地図上に黄色い丸と赤い丸で示す。

丸の上にカーソルを重ねると観測所名を参照できる。

次にクリックすると気象観測と天気予報を参照できる。

マップの切り替え:黒色「×」印の緑ボタンをクリックして拡大、「-」印の緑ボタンをクリックして縮小、緑色の三角印をクリックして隣りの地図に切り替え


METAR-TAF: